Date,TemperatureHighF,TemperatureAvgF,TemperatureLowF,DewpointHighF,DewpointAvgF,DewpointLowF,HumidityHigh,HumidityAvg,HumidityLow,PressureMaxIn,PressureMinIn,WindSpeedMaxMPH,WindSpeedAvgMPH,GustSpeedMaxMPH,PrecipitationSumIn
2013-6-1,82.8,69.5,59.4,70.9,64.2,58.5,98,84,62,29.97,29.90,11,1,13,0.00
2013-6-2,78.4,68.3,62.7,69.7,64.5,61.2,98,88,70,29.92,29.80,14,2,17,0.01
2013-6-3,65.8,63.7,61.4,65.8,63.6,61.4,100,100,97,29.84,29.76,11,1,11,2.17
2013-6-4,70.3,60.7,51.9,61.9,51.6,46.3,100,74,48,30.04,29.76,6,1,6,0.00
2013-6-5,70.3,58.9,46.4,52.7,49.5,45.3,99,74,46,30.16,30.04,9,0,9,0.00
2013-6-6,72.8,60.9,49.6,57.9,53.6,48.6,99,79,47,30.18,30.05,8,0,8,0.00
2013-6-7,66.5,58.4,56.6,66.4,57.3,53.1,100,96,83,30.07,29.72,23,1,23,1.79
2013-6-8,71.0,64.9,58.3,67.6,63.0,58.3,100,94,77,29.97,29.52,17,2,19,0.40
2013-6-9,78.0,66.8,58.5,63.2,60.0,56.9,100,81,56,30.13,29.97,8,1,8,0.00
2013-6-10,73.3,62.8,56.6,63.5,59.4,55.8,99,89,67,30.16,29.95,8,0,8,0.73
2013-6-11,74.0,64.6,55.2,69.8,63.5,54.6,100,96,80,29.95,29.50,12,1,12,1.41
2013-6-12,70.4,61.6,54.4,58.9,56.9,54.1,100,85,62,29.76,29.53,9,1,9,0.00
2013-6-13,66.6,58.4,52.9,60.8,55.6,52.1,98,91,72,29.79,29.57,8,0,11,0.23
2013-6-14,62.1,55.7,51.8,58.1,53.2,51.1,99,92,71,29.72,29.51,14,2,14,0.96
2013-6-15,77.6,65.8,54.5,59.3,54.4,47.0,100,70,37,29.92,29.71,9,1,9,0.00
2013-6-16,77.2,65.8,55.2,63.2,58.7,52.0,100,80,46,29.92,29.73,12,1,12,0.00
2013-6-17,80.5,69.6,60.8,67.8,63.8,59.6,97,83,61,29.89,29.75,10,1,10,0.00
2013-6-18,79.7,66.0,58.3,68.3,61.9,57.7,100,88,66,29.89,29.81,7,0,7,0.02
2013-6-19,70.3,62.4,55.7,59.5,55.4,49.8,98,80,55,30.12,29.80,9,1,9,0.02
2013-6-20,76.5,63.9,51.7,61.9,55.8,50.6,100,77,50,30.25,30.12,10,1,10,0.00
2013-6-21,75.9,65.2,53.0,61.1,55.2,51.4,98,72,52,30.25,30.19,8,1,8,0.00
2013-6-22,78.8,67.8,59.5,63.5,59.7,53.1,97,77,49,30.22,30.13,9,1,10,0.00
2013-6-23,80.6,71.1,63.1,69.7,66.7,62.2,99,87,66,30.15,30.02,13,1,13,0.00
2013-6-24,85.0,74.3,67.6,76.2,70.4,66.1,100,89,72,30.03,29.85,6,1,8,0.00
2013-6-25,86.9,74.9,66.8,72.2,68.7,65.1,96,82,59,29.88,29.72,7,1,8,0.00
2013-6-26,87.0,75.5,67.0,76.0,70.6,66.1,99,86,66,29.80,29.69,9,0,9,0.00
2013-6-27,79.4,69.3,65.9,72.9,67.8,65.5,100,95,78,29.81,29.71,7,0,7,0.00
2013-6-28,71.6,69.4,67.8,71.6,69.4,67.5,100,100,99,29.72,29.52,13,2,13,0.74
2013-6-29,75.5,70.4,67.8,72.1,69.7,67.5,100,98,86,29.73,29.51,14,1,14,1.25
2013-6-30,74.6,71.0,68.7,72.1,69.8,68.5,100,96,84,29.94,29.72,11,1,11,0.11